A- A+ FrançaisEnglishEspañol中国

最近的 LFBT Tarbes-Lourdes-PyrénéesSCRG RancaguaUHSB BurevestnikKUNV University ParkLKTB Brno TuranyKBOS Logan Intl

飞行员的航空天气,使用METAR(气象机场报告)进行的飞行准备和TAF(终端机场预报:针对以下情况的短期天气预报)航空)。 以及其他资源,例如VAC(目视进近图)和NOTAM(通知飞行员)以进行预试飞行.

METAR, TAF, VAC, NOTAM Brooks County机场 (美国) / OACI KBKS

它位于附近 Falfurrias, Falfurrias 在 3.2 km, Noria Willie 在 13 km, Premont 在 17 km, Sarita 在 33 km, Ricardo 在 36 km, Kingsville 在 43 km, Benavides 在 52 km, Bishop 在 53 km, Hebbronville 在 56 km, 665 Site Colonia 在 59 km,

机场的高度为 Brooks County机场的

34 m = 112 ft

附近的机场Brooks County机场的

跑道 Brooks County机场的

目前的天气 Brooks County机场的 - KBKS

nuages épars
23°C

Vent 20 km/h

可提供5天天气预报 Falfurrias 在 3.2 km, Noria Willie 在 13 km, Premont 在 17 km, Sarita 在 33 km, Ricardo 在 36 km, Kingsville 在 43 km, Benavides 在 52 km, Bishop 在 53 km, Hebbronville 在 56 km, 665 Site Colonia 在 59 km,

METAR Brooks County机场的 - KBKS

KBKS 072255Z AUTO 09011KT 10SM CLR 23/10 A3024 RMK AO1 T02270096

Brooks County机场METAR解码 (美国)

KBKS机场发行的METAR日期2020年03月07日至22:55 GMT. 这是一个自动生成的METAR, 警告:此METAR已过期, 已于 155 天 4 小时 8 分钟.

可见度为16.1 km = 10 sm.

温度为23°C = 73 °F 露点为10°C = 50 °F 。 这相当于44%的相对湿度。.

QNH是1024 hPa = 30.24 inHg

的风11 kt = 20 km/h, 风向为90°.

天空晴朗

备注 AO1 T02270096

TAF Brooks County机场的 - KBKS

没有TAF

Brooks County机场的NOTAM

提供的NOTAM不能保证其时事性。 在将其用于飞行准备或在飞行期间使用之前,飞行员是唯一负责验证其有效性的人员。

没有通知

数据源